Lowes, Kentucky
Current Conditions -  °F | °C
As of 5:53 AM on Monday 26 Jan 2015 (Local Time) from KPAH Reporting Station
Few Clouds Few Clouds  
Wind Chill: 23°   Ceiling: Unl
Heat Index: 30°   Visibility: 10mi
Dew Point: 24°   Wind: 7mph
Humidity: 79%   Direction: 330°NNW
Pressure: 30.01"   Gusts: NA
Location:  36.89°N, 88.77°W
Report Text: KPAH 261153Z 33006KT 10SM FEW020 M01/M04 A3001 RMK AO2 SLP166 70106 T10111044 10022 21011 53010
Loading
Personal Weather Stations






























Interactive Weather Map New forecast layout! Learn more

10-Day Weather Forecast

Advertisements
Track Severe Weather on mobile